»·PEaware :: HAL26 PHNL-KPDX

HAL26 :: PHNL-KPDX

FLIGHT INFORMATION

Flight Status: Arrived
Operator:
Hawaiian Airlines
More flights by this operator :: More flights under this callsign
Pilot: James H. (174)
Aircraft: Unknown
(A21N)
More flights by this aircraft type
Origin: PHNL Honolulu Intl
United States
Destination: KPDX Portland Intl
United States
More flights between these airports :: More routes between these airports
Route: MKK5 APACK R463 AUNTI ADOPE AXELE ADTIL 4000N13000W HEMLO ONP UBG
File this flight plan on PilotEdge
Remarks: TCAS
Altitude:
(Current/Filed)
35,000ft
Speed:
(Current/Filed)
465kts
Departed: 20-Nov-22 07:06 PM
Arrived: 20-Nov-22 07:57 PM
Distance/Time
Traveled:
2260nm/0:50
Distance/Time
To Go:
Arrived

Flight Plot

Page will automatically refresh every two minutes.

Flight plan parsing failed; only flown route is shown


Map Options




Map Legend


Flown Route
Filed Route
Departure Airport
Arrival Airport
Navaid (VOR, NDB)
Fix

Horizontal Profiles

Position Reports

Time Latitude Longitude Heading Altitude Ground
Speed
20-Nov-22 19:04 43.084539 -127.048399 49 35289ft 477kts
20-Nov-22 19:05 43.168239 -126.907669 49 35292ft 476kts
20-Nov-22 19:06 43.251513 -126.767003 49 35300ft 476kts
20-Nov-22 19:07 43.331959 -126.622988 54 35365ft 475kts
20-Nov-22 19:08 43.407340 -126.473184 54 35362ft 475kts
20-Nov-22 19:09 43.482675 -126.323651 54 35338ft 475kts
20-Nov-22 19:10 43.557643 -126.173870 54 35346ft 474kts
20-Nov-22 19:11 43.632257 -126.023978 54 35299ft 474kts
20-Nov-22 19:12 43.706699 -125.873733 54 35305ft 475kts
20-Nov-22 19:13 43.781136 -125.722656 54 35325ft 475kts
20-Nov-22 19:14 43.855230 -125.571562 54 35327ft 475kts
20-Nov-22 19:15 43.929457 -125.419418 55 35318ft 475kts
20-Nov-22 19:16 44.003228 -125.267368 55 35306ft 475kts
20-Nov-22 19:17 44.076831 -125.114771 55 35341ft 475kts
20-Nov-22 19:18 44.150310 -124.961821 55 35341ft 476kts
20-Nov-22 19:19 44.223493 -124.808693 55 35375ft 475kts
20-Nov-22 19:20 44.296455 -124.654977 56 35330ft 475kts
20-Nov-22 19:21 44.369253 -124.501124 56 35309ft 475kts
20-Nov-22 19:22 44.441713 -124.346824 56 35314ft 475kts
20-Nov-22 19:23 44.514228 -124.191879 56 35325ft 475kts
20-Nov-22 19:24 44.589619 -124.040330 45 35324ft 474kts
20-Nov-22 19:25 44.684750 -123.911579 43 35325ft 474kts
20-Nov-22 19:26 44.778579 -123.781572 43 35336ft 474kts
20-Nov-22 19:27 44.872923 -123.651770 43 35343ft 474kts
20-Nov-22 19:28 44.891750 -123.625617 43 35344ft 474kts
20-Nov-22 19:29 44.891750 -123.625617 43 35344ft 474kts
20-Nov-22 19:30 45.058598 -123.393196 43 35338ft 474kts
20-Nov-22 19:31 45.143792 -123.273856 43 35322ft 473kts
20-Nov-22 19:32 45.207073 -123.115358 79 32787ft 470kts
20-Nov-22 19:33 45.193985 -122.935861 116 29733ft 458kts
20-Nov-22 19:34 45.110391 -122.807854 154 26721ft 439kts
20-Nov-22 19:35 44.991356 -122.784648 191 22952ft 436kts
20-Nov-22 19:36 44.875626 -122.818237 194 20100ft 417kts
20-Nov-22 19:37 44.765251 -122.853156 194 18049ft 383kts
20-Nov-22 19:38 44.675410 -122.816840 125 17381ft 342kts
20-Nov-22 19:39 44.672400 -122.694785 51 15379ft 339kts
20-Nov-22 19:40 44.760774 -122.653090 358 12144ft 355kts
20-Nov-22 19:41 44.858286 -122.648535 1 10092ft 346kts
20-Nov-22 19:42 44.954297 -122.642284 1 10003ft 346kts
20-Nov-22 19:43 45.050486 -122.636243 1 10005ft 346kts
20-Nov-22 19:44 45.146347 -122.630142 1 10008ft 346kts
20-Nov-22 19:45 45.240961 -122.624083 0 10005ft 333kts
20-Nov-22 19:46 45.322812 -122.624213 338 9905ft 282kts
20-Nov-22 19:47 45.388828 -122.681427 324 8224ft 275kts
20-Nov-22 19:48 45.451502 -122.741369 325 6511ft 269kts
20-Nov-22 19:49 45.513103 -122.800595 325 4776ft 263kts
20-Nov-22 19:50 45.572895 -122.859038 325 3111ft 260kts
20-Nov-22 19:51 45.632010 -122.879524 32 2992ft 228kts
20-Nov-22 19:52 45.645543 -122.799625 95 2524ft 220kts
20-Nov-22 19:53 45.632151 -122.716243 120 1771ft 222kts
20-Nov-22 19:54 45.604597 -122.645759 119 458ft 176kts
20-Nov-22 19:55 45.589038 -122.605709 119 44ft 95kts
20-Nov-22 19:56 45.586604 -122.597344 30 44ft 0kts
20-Nov-22 19:57 45.587581 -122.596838 326 44ft 8kts
20-Nov-22 19:58 45.589448 -122.601458 300 44ft 4kts
20-Nov-22 19:59 45.591380 -122.599737 88 44ft 11kts
20-Nov-22 20:00 45.592502 -122.597539 105 44ft 2kts
20-Nov-22 20:01 45.591889 -122.596948 149 44ft 0kts
20-Nov-22 20:02 45.591889 -122.596948 149 44ft 0kts
20-Nov-22 20:03 45.591889 -122.596948 149 44ft 0kts
20-Nov-22 20:04 45.591889 -122.596948 149 44ft 0kts
20-Nov-22 20:05 45.591889 -122.596948 149 44ft 0kts

Navigation Log

Ident Type
Flight plan parsing failed, navigation log unavailable